createdAt,value
2019-03-22T00:00:57.812Z,96718.83
2019-03-22T00:03:25.677Z,96719.71
2019-03-22T00:05:53.549Z,96718.31
2019-03-22T00:08:21.501Z,96711.73
2019-03-22T00:10:49.339Z,96714.95
2019-03-22T00:13:17.222Z,96720.28
2019-03-22T00:15:45.144Z,96716.86
2019-03-22T00:18:13.002Z,96707.02
2019-03-22T00:20:40.899Z,96713.31
2019-03-22T00:23:08.799Z,96707.39
2019-03-22T00:25:36.867Z,96713.05
2019-03-22T00:28:04.702Z,96710.83
2019-03-22T00:30:32.602Z,96707.20
2019-03-22T00:33:00.485Z,96704.52
2019-03-22T00:35:28.320Z,96700.63
2019-03-22T00:37:56.185Z,96694.64
2019-03-22T00:40:24.036Z,96698.20
2019-03-22T00:42:51.922Z,96698.02
2019-03-22T00:45:19.766Z,96695.20
2019-03-22T00:47:47.565Z,96697.88
2019-03-22T00:50:15.583Z,96694.21
2019-03-22T00:52:43.435Z,96696.33
2019-03-22T00:55:11.379Z,96696.67
2019-03-22T00:57:39.261Z,96693.86
2019-03-22T01:00:08.584Z,96689.90
2019-03-22T01:02:36.455Z,96694.67
2019-03-22T01:05:06.219Z,96681.38
2019-03-22T01:07:34.081Z,96685.17
2019-03-22T01:10:01.921Z,96684.30
2019-03-22T01:12:29.819Z,96681.73
2019-03-22T01:14:57.639Z,96681.55
2019-03-22T01:17:25.482Z,96683.75
2019-03-22T01:19:53.348Z,96676.80
2019-03-22T01:22:21.242Z,96680.33
2019-03-22T01:24:49.067Z,96683.05
2019-03-22T01:27:16.939Z,96683.31
2019-03-22T01:29:44.765Z,96680.53
2019-03-22T01:32:12.640Z,96684.59
2019-03-22T01:34:40.481Z,96675.86
2019-03-22T01:37:08.341Z,96674.11
2019-03-22T01:39:36.239Z,96673.44
2019-03-22T01:42:04.245Z,96669.22
2019-03-22T01:44:32.111Z,96679.36
2019-03-22T01:46:59.981Z,96680.58
2019-03-22T01:49:27.879Z,96675.97
2019-03-22T01:51:56.211Z,96675.58
2019-03-22T01:54:24.128Z,96676.91
2019-03-22T01:56:52.814Z,96670.48
2019-03-22T01:59:20.722Z,96672.16
2019-03-22T02:01:48.565Z,96673.25
2019-03-22T02:04:16.433Z,96669.77
2019-03-22T02:06:44.387Z,96670.89
2019-03-22T02:09:12.233Z,96679.80
2019-03-22T02:11:40.099Z,96675.59
2019-03-22T02:14:07.984Z,96673.44
2019-03-22T02:16:35.979Z,96671.80
2019-03-22T02:19:04.028Z,96673.39
2019-03-22T02:21:31.859Z,96663.80
2019-03-22T02:23:59.739Z,96665.64
2019-03-22T02:26:27.599Z,96668.53
2019-03-22T02:28:55.503Z,96667.42
2019-03-22T02:31:23.339Z,96667.55
2019-03-22T02:33:51.176Z,96660.95
2019-03-22T02:36:19.258Z,96660.98
2019-03-22T02:38:47.126Z,96663.31
2019-03-22T02:41:14.994Z,96673.26
2019-03-22T02:43:42.913Z,96667.28
2019-03-22T02:46:10.780Z,96668.45
2019-03-22T02:48:38.659Z,96667.51
2019-03-22T02:51:06.584Z,96662.65
2019-03-22T02:53:34.446Z,96661.84
2019-03-22T02:56:02.504Z,96658.86
2019-03-22T02:58:30.584Z,96657.92
2019-03-22T03:00:58.760Z,96662.14
2019-03-22T03:03:26.981Z,96663.72
2019-03-22T03:05:54.826Z,96659.12
2019-03-22T03:08:22.680Z,96670.72
2019-03-22T03:10:50.551Z,96662.42
2019-03-22T03:13:18.469Z,96659.31
2019-03-22T03:15:46.303Z,96660.46
2019-03-22T03:18:14.168Z,96661.03
2019-03-22T03:20:42.063Z,96663.44
2019-03-22T03:23:09.907Z,96667.67
2019-03-22T03:25:37.763Z,96663.72
2019-03-22T03:28:05.647Z,96658.19
2019-03-22T03:30:33.458Z,96664.13
2019-03-22T03:33:01.948Z,96662.17
2019-03-22T03:35:29.753Z,96667.73
2019-03-22T03:37:57.610Z,96668.72
2019-03-22T03:40:25.502Z,96662.27
2019-03-22T03:42:53.451Z,96668.87
2019-03-22T03:45:34.742Z,96673.78
2019-03-22T03:48:02.989Z,96664.73
2019-03-22T03:50:30.842Z,96676.73
2019-03-22T03:52:58.774Z,96666.58
2019-03-22T03:55:26.722Z,96666.44
2019-03-22T03:57:54.544Z,96670.68
2019-03-22T04:00:22.418Z,96671.48
2019-03-22T04:02:50.279Z,96673.15
2019-03-22T04:05:18.150Z,96675.06
2019-03-22T04:07:46.143Z,96679.09
2019-03-22T04:10:14.043Z,96679.09
2019-03-22T04:12:41.959Z,96673.94
2019-03-22T04:15:09.903Z,96678.65
2019-03-22T04:17:37.761Z,96672.36
2019-03-22T04:20:05.893Z,96684.70
2019-03-22T04:22:36.336Z,96682.88
2019-03-22T04:25:03.761Z,96683.06
2019-03-22T04:27:31.689Z,96690.34
2019-03-22T04:29:59.559Z,96683.25
2019-03-22T04:32:27.411Z,96681.11
2019-03-22T04:34:55.655Z,96676.03
2019-03-22T04:37:23.532Z,96670.34
2019-03-22T04:39:51.356Z,96679.24
2019-03-22T04:42:19.335Z,96679.91
2019-03-22T04:44:47.242Z,96682.17
2019-03-22T04:47:17.322Z,96686.76
2019-03-22T04:49:45.759Z,96683.04
2019-03-22T04:52:14.256Z,96687.33
2019-03-22T04:54:42.859Z,96687.67
2019-03-22T04:57:11.979Z,96684.81
2019-03-22T04:59:41.042Z,96688.69
2019-03-22T05:02:09.542Z,96683.29
2019-03-22T05:04:38.960Z,96689.16
2019-03-22T05:07:07.374Z,96687.09
2019-03-22T05:09:36.287Z,96696.06
2019-03-22T05:12:04.380Z,96696.33
2019-03-22T05:14:33.760Z,96699.53
2019-03-22T05:17:01.770Z,96705.33
2019-03-22T05:19:31.445Z,96693.11
2019-03-22T05:22:00.252Z,96700.83
2019-03-22T05:24:28.863Z,96703.08
2019-03-22T05:26:58.022Z,96710.46
2019-03-22T05:29:30.927Z,96718.45
2019-03-22T05:32:12.001Z,96718.20
2019-03-22T05:34:39.883Z,96717.98
2019-03-22T05:37:07.743Z,96713.27
2019-03-22T05:39:35.661Z,96709.50
2019-03-22T05:42:03.747Z,96716.55
2019-03-22T05:44:31.599Z,96721.06
2019-03-22T05:46:59.527Z,96720.66
2019-03-22T05:49:27.524Z,96739.11
2019-03-22T05:51:55.408Z,96728.20
2019-03-22T05:54:23.298Z,96727.88
2019-03-22T05:56:51.243Z,96733.53
2019-03-22T05:59:19.136Z,96727.55
2019-03-22T06:01:47.050Z,96731.91
2019-03-22T06:04:14.966Z,96729.00
2019-03-22T06:06:42.796Z,96732.09
2019-03-22T06:09:10.632Z,96726.92
2019-03-22T06:11:38.561Z,96732.90
2019-03-22T06:14:06.484Z,96730.23
2019-03-22T06:16:34.332Z,96743.30
2019-03-22T06:19:02.221Z,96738.87
2019-03-22T06:21:30.162Z,96738.67
2019-03-22T06:23:58.070Z,96746.31
2019-03-22T06:26:26.247Z,96739.28
2019-03-22T06:28:54.125Z,96742.05
2019-03-22T06:31:22.054Z,96741.90
2019-03-22T06:33:49.939Z,96745.48
2019-03-22T06:36:17.802Z,96749.66
2019-03-22T06:38:45.671Z,96742.38
2019-03-22T06:41:13.607Z,96746.37
2019-03-22T06:43:41.427Z,96742.46
2019-03-22T06:46:09.302Z,96734.75
2019-03-22T06:48:37.300Z,96741.96
2019-03-22T06:51:05.240Z,96737.59
2019-03-22T06:53:33.518Z,96734.86
2019-03-22T06:56:01.364Z,96730.72
2019-03-22T06:58:29.243Z,96726.27
2019-03-22T07:00:57.102Z,96726.41
2019-03-22T07:03:25.009Z,96724.88
2019-03-22T07:05:52.885Z,96725.82
2019-03-22T07:08:20.742Z,96722.27
2019-03-22T07:10:48.602Z,96719.06
2019-03-22T07:13:16.501Z,96712.53
2019-03-22T07:15:44.362Z,96710.91
2019-03-22T07:18:12.243Z,96711.53
2019-03-22T07:20:40.140Z,96708.07
2019-03-22T07:23:07.979Z,96705.24
2019-03-22T07:25:35.880Z,96704.44
2019-03-22T07:28:04.074Z,96708.52
2019-03-22T07:30:31.967Z,96708.23
2019-03-22T07:32:59.902Z,96713.77
2019-03-22T07:35:27.849Z,96715.83
2019-03-22T07:37:55.725Z,96711.47
2019-03-22T07:40:23.782Z,96710.45
2019-03-22T07:42:51.934Z,96702.03
2019-03-22T07:45:20.112Z,96700.13
2019-03-22T07:47:48.354Z,96689.55
2019-03-22T07:50:16.673Z,96688.34
2019-03-22T07:52:44.752Z,96684.20
2019-03-22T07:55:12.920Z,96675.99
2019-03-22T07:57:40.996Z,96678.33
2019-03-22T08:00:09.950Z,96674.67
2019-03-22T08:02:38.146Z,96672.11
2019-03-22T08:05:06.439Z,96662.08
2019-03-22T08:07:34.471Z,96657.19
2019-03-22T08:10:03.966Z,96647.94
2019-03-22T08:12:32.353Z,96641.29
2019-03-22T08:15:00.561Z,96636.26
2019-03-22T08:17:28.680Z,96636.14
2019-03-22T08:19:57.328Z,96631.94
2019-03-22T08:22:25.614Z,96629.41
2019-03-22T08:24:53.656Z,96619.87
2019-03-22T08:27:22.173Z,96614.00
2019-03-22T08:29:50.038Z,96614.69
2019-03-22T08:32:18.042Z,96611.02
2019-03-22T08:34:47.788Z,96614.09
2019-03-22T08:37:15.656Z,96606.00
2019-03-22T08:39:43.580Z,96599.64
2019-03-22T08:42:11.486Z,96601.86
2019-03-22T08:44:39.407Z,96591.47
2019-03-22T08:47:07.450Z,96588.28
2019-03-22T08:49:35.519Z,96579.98
2019-03-22T08:52:04.265Z,96580.73
2019-03-22T08:54:32.188Z,96568.30
2019-03-22T08:57:00.087Z,96568.86
2019-03-22T08:59:28.327Z,96555.20
2019-03-22T09:01:56.180Z,96563.42
2019-03-22T09:04:24.148Z,96553.73
2019-03-22T09:06:52.093Z,96553.50
2019-03-22T09:09:19.989Z,96552.95
2019-03-22T09:11:47.862Z,96552.98
2019-03-22T09:14:15.819Z,96542.51
2019-03-22T09:16:43.757Z,96537.69
2019-03-22T09:19:11.677Z,96543.55
2019-03-22T09:21:39.607Z,96538.38
2019-03-22T09:24:07.633Z,96533.98
2019-03-22T09:26:47.182Z,96528.28
2019-03-22T09:29:05.398Z,96522.33
2019-03-22T09:31:33.372Z,96518.00
2019-03-22T09:34:01.231Z,96513.22
2019-03-22T09:36:29.123Z,96523.13
2019-03-22T09:38:57.045Z,96515.16
2019-03-22T09:41:24.989Z,96506.14
2019-03-22T09:43:52.932Z,96503.36
2019-03-22T09:46:20.813Z,96495.22
2019-03-22T09:48:48.758Z,96493.61
2019-03-22T09:51:16.654Z,96496.81
2019-03-22T09:53:44.523Z,96490.62
2019-03-22T09:56:12.883Z,96488.49
2019-03-22T09:58:40.821Z,96482.02
2019-03-22T10:01:08.822Z,96482.03
2019-03-22T10:03:36.758Z,96472.17
2019-03-22T10:06:04.699Z,96457.12
2019-03-22T10:08:32.549Z,96455.48
2019-03-22T10:11:00.432Z,96453.52
2019-03-22T10:13:28.302Z,96458.16
2019-03-22T10:15:56.122Z,96454.67
2019-03-22T10:18:24.026Z,96450.47
2019-03-22T10:20:52.183Z,96450.81
2019-03-22T10:23:22.440Z,96452.75
2019-03-22T10:25:49.905Z,96444.45
2019-03-22T10:28:17.939Z,96443.02
2019-03-22T10:30:45.894Z,96441.02
2019-03-22T10:33:22.453Z,96437.41
2019-03-22T10:35:43.605Z,96431.44
2019-03-22T10:38:16.199Z,96426.47
2019-03-22T10:40:41.446Z,96424.66
2019-03-22T10:43:09.410Z,96423.23
2019-03-22T10:45:37.395Z,96419.34
2019-03-22T10:48:05.316Z,96416.36
2019-03-22T10:50:33.165Z,96409.57
2019-03-22T10:53:01.031Z,96403.78
2019-03-22T10:55:30.536Z,96405.80
2019-03-22T10:57:58.840Z,96399.27
2019-03-22T11:00:26.700Z,96400.66
2019-03-22T11:02:54.599Z,96403.30
2019-03-22T11:05:22.472Z,96396.23
2019-03-22T11:07:50.399Z,96397.51
2019-03-22T11:10:18.384Z,96401.43
2019-03-22T11:12:46.327Z,96390.63
2019-03-22T11:15:14.406Z,96391.11
2019-03-22T11:17:42.646Z,96392.81
2019-03-22T11:20:13.582Z,96387.27
2019-03-22T11:22:41.502Z,96379.48
2019-03-22T11:25:09.901Z,96379.73
2019-03-22T11:27:37.940Z,96376.02
2019-03-22T11:30:08.949Z,96374.58
2019-03-22T11:32:36.989Z,96375.39
2019-03-22T11:35:05.761Z,96362.92
2019-03-22T11:37:33.625Z,96373.60
2019-03-22T11:40:01.471Z,96371.33
2019-03-22T11:42:29.382Z,96359.56
2019-03-22T11:44:58.442Z,96358.59
2019-03-22T11:47:26.401Z,96365.80
2019-03-22T11:49:54.302Z,96359.06
2019-03-22T11:52:22.205Z,96352.72
2019-03-22T11:54:50.117Z,96352.36
2019-03-22T11:57:19.207Z,96346.20
2019-03-22T11:59:47.110Z,96342.47
2019-03-22T12:02:22.180Z,96335.39
2019-03-22T12:04:44.837Z,96338.49
2019-03-22T12:07:12.722Z,96336.67
2019-03-22T12:09:40.694Z,96338.52
2019-03-22T12:12:08.627Z,96332.79
2019-03-22T12:14:36.481Z,96327.56
2019-03-22T12:17:04.492Z,96328.77
2019-03-22T12:19:32.426Z,96322.27
2019-03-22T12:22:00.322Z,96316.94
2019-03-22T12:24:28.324Z,96313.44
2019-03-22T12:26:56.285Z,96305.84
2019-03-22T12:29:24.137Z,96297.09
2019-03-22T12:31:52.083Z,96293.50
2019-03-22T12:34:20.065Z,96300.31
2019-03-22T12:36:47.933Z,96296.20
2019-03-22T12:39:15.825Z,96298.50
2019-03-22T12:41:43.723Z,96288.02
2019-03-22T12:44:11.692Z,96292.52
2019-03-22T12:46:39.622Z,96286.06
2019-03-22T12:49:07.639Z,96279.48
2019-03-22T12:51:35.586Z,96279.10
2019-03-22T12:54:03.599Z,96269.18
2019-03-22T12:56:31.493Z,96269.97
2019-03-22T12:58:59.486Z,96272.30
2019-03-22T13:01:27.486Z,96269.67
2019-03-22T13:03:55.379Z,96266.14
2019-03-22T13:06:23.311Z,96264.90
2019-03-22T13:08:51.259Z,96266.77
2019-03-22T13:11:19.600Z,96261.36
2019-03-22T13:13:47.525Z,96262.65
2019-03-22T13:16:15.453Z,96256.08
2019-03-22T13:18:50.167Z,96248.56
2019-03-22T13:21:13.307Z,96260.22
2019-03-22T13:23:41.204Z,96259.08
2019-03-22T13:26:09.222Z,96255.94
2019-03-22T13:28:37.139Z,96255.04
2019-03-22T13:31:05.016Z,96250.37
2019-03-22T13:33:32.984Z,96242.91
2019-03-22T13:36:00.979Z,96244.64
2019-03-22T13:38:28.959Z,96250.17
2019-03-22T13:40:56.899Z,96241.31
2019-03-22T13:43:24.753Z,96240.11
2019-03-22T13:45:52.780Z,96241.41
2019-03-22T13:48:20.691Z,96243.27
2019-03-22T13:50:48.632Z,96237.09
2019-03-22T13:53:16.571Z,96236.02
2019-03-22T13:55:44.442Z,96232.95
2019-03-22T13:58:12.341Z,96231.07
2019-03-22T14:00:40.234Z,96231.13
2019-03-22T14:03:08.161Z,96236.59
2019-03-22T14:05:36.122Z,96221.21
2019-03-22T14:08:04.222Z,96219.30
2019-03-22T14:10:35.479Z,96225.67
2019-03-22T14:13:04.341Z,96223.36
2019-03-22T14:15:32.356Z,96222.13
2019-03-22T14:18:00.611Z,96224.12
2019-03-22T14:20:29.061Z,96220.66
2019-03-22T14:22:56.991Z,96219.52
2019-03-22T14:25:24.867Z,96216.99
2019-03-22T14:27:52.784Z,96211.78
2019-03-22T14:30:20.722Z,96217.13
2019-03-22T14:32:48.591Z,96217.47
2019-03-22T14:35:16.539Z,96222.06
2019-03-22T14:37:44.417Z,96218.89
2019-03-22T14:40:15.561Z,96222.24
2019-03-22T14:42:42.183Z,96213.95
2019-03-22T14:45:10.322Z,96222.68
2019-03-22T14:47:38.293Z,96215.29
2019-03-22T14:50:06.473Z,96218.30
2019-03-22T14:52:34.506Z,96212.84
2019-03-22T14:55:02.522Z,96211.95
2019-03-22T14:57:30.526Z,96212.08
2019-03-22T14:59:59.300Z,96204.83
2019-03-22T15:02:27.492Z,96202.80
2019-03-22T15:04:55.359Z,96207.77
2019-03-22T15:07:23.269Z,96208.47
2019-03-22T15:09:51.145Z,96215.23
2019-03-22T15:12:19.048Z,96208.85
2019-03-22T15:15:02.938Z,96215.57
2019-03-22T15:18:05.315Z,96223.05
2019-03-22T15:20:55.838Z,96217.09
2019-03-22T15:23:46.436Z,96218.23
2019-03-22T15:26:37.554Z,96219.03
2019-03-22T15:32:09.353Z,96227.06
2019-03-22T15:35:15.321Z,96218.81
2019-03-22T15:38:09.017Z,96223.03
2019-03-22T15:40:36.982Z,96221.34
2019-03-22T15:43:04.944Z,96229.44
2019-03-22T15:45:32.894Z,96225.63
2019-03-22T15:48:00.762Z,96227.39
2019-03-22T15:50:28.704Z,96233.10
2019-03-22T15:52:56.623Z,96234.52
2019-03-22T15:55:24.619Z,96231.78
2019-03-22T15:57:52.479Z,96235.81
2019-03-22T16:00:21.387Z,96232.88
2019-03-22T16:02:49.442Z,96235.21
2019-03-22T16:05:17.379Z,96235.29
2019-03-22T16:07:45.336Z,96244.62
2019-03-22T16:10:13.323Z,96248.63
2019-03-22T16:12:41.205Z,96245.80
2019-03-22T16:15:09.760Z,96239.16
2019-03-22T16:17:37.674Z,96250.02
2019-03-22T16:20:06.364Z,96243.95
2019-03-22T16:22:35.389Z,96237.24
2019-03-22T16:25:03.711Z,96249.50
2019-03-22T16:27:31.721Z,96254.80
2019-03-22T16:29:59.711Z,96259.04
2019-03-22T16:32:27.694Z,96264.27
2019-03-22T16:34:55.662Z,96272.17
2019-03-22T16:37:23.636Z,96272.75
2019-03-22T16:39:51.459Z,96269.78
2019-03-22T16:42:19.419Z,96274.23
2019-03-22T16:44:47.319Z,96278.05
2019-03-22T16:47:15.239Z,96282.58
2019-03-22T16:49:43.159Z,96277.50
2019-03-22T16:52:11.086Z,96279.44
2019-03-22T16:54:38.993Z,96280.52
2019-03-22T16:57:06.902Z,96292.19
2019-03-22T16:59:34.983Z,96285.88
2019-03-22T17:02:03.377Z,96291.28
2019-03-22T17:04:31.488Z,96294.53
2019-03-22T17:06:59.490Z,96293.22
2019-03-22T17:09:27.566Z,96291.99
2019-03-22T17:11:55.645Z,96290.57
2019-03-22T17:14:23.660Z,96295.98
2019-03-22T17:16:52.111Z,96300.42
2019-03-22T17:19:20.141Z,96299.68
2019-03-22T17:21:48.175Z,96297.91
2019-03-22T17:24:16.365Z,96303.63
2019-03-22T17:26:44.394Z,96301.67
2019-03-22T17:29:12.513Z,96307.73
2019-03-22T17:31:40.653Z,96309.20
2019-03-22T17:34:14.174Z,96320.20
2019-03-22T17:36:38.882Z,96314.81
2019-03-22T17:39:08.278Z,96310.39
2019-03-22T17:41:36.402Z,96322.83
2019-03-22T17:44:04.672Z,96322.16
2019-03-22T17:46:32.956Z,96320.33
2019-03-22T17:49:01.635Z,96324.64
2019-03-22T17:51:30.273Z,96323.44
2019-03-22T17:53:58.594Z,96340.31
2019-03-22T17:56:27.738Z,96337.86
2019-03-22T17:58:55.948Z,96336.50
2019-03-22T18:01:24.252Z,96346.88
2019-03-22T18:03:52.453Z,96353.41
2019-03-22T18:06:20.591Z,96364.52
2019-03-22T18:08:48.875Z,96363.50
2019-03-22T18:11:17.140Z,96358.64
2019-03-22T18:13:45.539Z,96368.91
2019-03-22T18:16:13.855Z,96372.94
2019-03-22T18:18:42.132Z,96374.05
2019-03-22T18:21:10.535Z,96369.98
2019-03-22T18:23:38.865Z,96373.68
2019-03-22T18:26:07.373Z,96373.58
2019-03-22T18:28:35.681Z,96367.41
2019-03-22T18:31:04.166Z,96369.75
2019-03-22T18:33:32.514Z,96370.53
2019-03-22T18:36:00.930Z,96367.42
2019-03-22T18:38:29.176Z,96369.12
2019-03-22T18:40:57.501Z,96375.77
2019-03-22T18:43:25.984Z,96373.52
2019-03-22T18:45:54.320Z,96377.36
2019-03-22T18:48:23.143Z,96375.78
2019-03-22T18:50:56.809Z,96382.36
2019-03-22T18:53:21.835Z,96385.63
2019-03-22T18:55:50.845Z,96384.48
2019-03-22T18:58:19.207Z,96381.59
2019-03-22T19:00:49.649Z,96386.64
2019-03-22T19:03:17.968Z,96381.50
2019-03-22T19:05:46.782Z,96385.90
2019-03-22T19:08:17.580Z,96386.36
2019-03-22T19:10:46.084Z,96389.29
2019-03-22T19:13:14.479Z,96388.22
2019-03-22T19:15:42.848Z,96390.47
2019-03-22T19:18:11.327Z,96388.57
2019-03-22T19:20:40.826Z,96391.86
2019-03-22T19:23:09.121Z,96396.34
2019-03-22T19:25:37.502Z,96397.78
2019-03-22T19:28:05.970Z,96398.05
2019-03-22T19:30:34.425Z,96400.04
2019-03-22T19:33:02.808Z,96405.73
2019-03-22T19:35:31.432Z,96410.09
2019-03-22T19:37:59.997Z,96413.95
2019-03-22T19:40:28.397Z,96413.77
2019-03-22T19:42:56.787Z,96420.84
2019-03-22T19:45:24.983Z,96424.18
2019-03-22T19:47:53.297Z,96427.48
2019-03-22T19:50:21.668Z,96421.88
2019-03-22T19:52:50.041Z,96427.16
2019-03-22T19:55:18.598Z,96430.39
2019-03-22T19:57:48.048Z,96433.47
2019-03-22T20:00:17.160Z,96439.45
2019-03-22T20:02:45.725Z,96445.48
2019-03-22T20:05:21.887Z,96452.22
2019-03-22T20:07:50.460Z,96456.38
2019-03-22T20:10:19.839Z,96454.86
2019-03-22T20:12:48.377Z,96463.64
2019-03-22T20:15:18.842Z,96457.59
2019-03-22T20:17:49.563Z,96459.31
2019-03-22T20:20:18.789Z,96456.58
2019-03-22T20:22:48.766Z,96458.63
2019-03-22T20:25:17.317Z,96464.60
2019-03-22T20:27:45.617Z,96461.38
2019-03-22T20:30:14.336Z,96467.65
2019-03-22T20:32:42.704Z,96474.86
2019-03-22T20:35:16.311Z,96470.27
2019-03-22T20:37:41.228Z,96469.83
2019-03-22T20:40:10.108Z,96466.41
2019-03-22T20:42:38.640Z,96472.02
2019-03-22T20:45:09.186Z,96467.31
2019-03-22T20:47:37.486Z,96473.02
2019-03-22T20:50:06.357Z,96465.50
2019-03-22T20:52:35.064Z,96462.49
2019-03-22T20:55:03.762Z,96465.44
2019-03-22T20:57:32.366Z,96469.65
2019-03-22T21:00:00.774Z,96470.01
2019-03-22T21:02:29.186Z,96463.27
2019-03-22T21:04:57.499Z,96469.41
2019-03-22T21:07:25.911Z,96468.88
2019-03-22T21:09:54.867Z,96471.77
2019-03-22T21:12:23.382Z,96474.13
2019-03-22T21:14:51.647Z,96475.95
2019-03-22T21:17:20.019Z,96480.56
2019-03-22T21:19:48.349Z,96483.78
2019-03-22T21:22:16.697Z,96487.86
2019-03-22T21:24:47.396Z,96480.03
2019-03-22T21:27:16.138Z,96486.55
2019-03-22T21:29:44.743Z,96490.16
2019-03-22T21:32:13.219Z,96482.44
2019-03-22T21:34:43.940Z,96489.92
2019-03-22T21:37:11.950Z,96492.00
2019-03-22T21:39:40.102Z,96494.50
2019-03-22T21:42:08.257Z,96500.29
2019-03-22T21:44:36.372Z,96499.44
2019-03-22T21:47:04.839Z,96493.77
2019-03-22T21:49:32.811Z,96495.63
2019-03-22T21:52:00.888Z,96500.41
2019-03-22T21:54:29.052Z,96497.44
2019-03-22T21:56:57.532Z,96499.09
2019-03-22T21:59:25.498Z,96499.38
2019-03-22T22:01:53.572Z,96504.63
2019-03-22T22:04:21.586Z,96503.34
2019-03-22T22:06:49.486Z,96500.44
2019-03-22T22:09:17.391Z,96503.05
2019-03-22T22:11:45.307Z,96507.34
2019-03-22T22:14:13.262Z,96511.79
2019-03-22T22:16:41.179Z,96518.84
2019-03-22T22:19:09.068Z,96515.89
2019-03-22T22:21:36.992Z,96518.27
2019-03-22T22:24:04.883Z,96521.23
2019-03-22T22:26:32.845Z,96522.22
2019-03-22T22:29:00.724Z,96509.75
2019-03-22T22:31:28.589Z,96524.95
2019-03-22T22:33:56.446Z,96520.06
2019-03-22T22:39:34.442Z,96520.56
2019-03-22T22:42:02.367Z,96522.95
2019-03-22T22:44:30.261Z,96512.82
2019-03-22T22:46:58.392Z,96517.52
2019-03-22T22:49:26.333Z,96520.20
2019-03-22T22:51:54.251Z,96519.70
2019-03-22T22:54:22.141Z,96514.67
2019-03-22T22:56:50.042Z,96518.03
2019-03-22T22:59:17.919Z,96516.05
2019-03-22T23:01:45.859Z,96512.00
2019-03-22T23:04:13.731Z,96513.62
2019-03-22T23:06:41.626Z,96509.72
2019-03-22T23:09:09.541Z,96511.66
2019-03-22T23:11:37.399Z,96510.77
2019-03-22T23:14:05.326Z,96502.20
2019-03-22T23:16:33.184Z,96500.15
2019-03-22T23:19:01.139Z,96501.37
2019-03-22T23:21:29.043Z,96499.95
2019-03-22T23:23:56.949Z,96510.02
2019-03-22T23:26:24.881Z,96503.16
2019-03-22T23:28:52.763Z,96508.06
2019-03-22T23:31:22.299Z,96507.52
2019-03-22T23:33:50.312Z,96504.08
2019-03-22T23:36:20.524Z,96507.73
2019-03-22T23:38:48.051Z,96516.19
2019-03-22T23:41:15.891Z,96515.80
2019-03-22T23:43:43.739Z,96518.52
2019-03-22T23:46:11.742Z,96521.43
2019-03-22T23:48:39.636Z,96514.85
2019-03-22T23:51:07.552Z,96524.73
2019-03-22T23:53:35.461Z,96526.72
2019-03-22T23:56:03.366Z,96525.37
2019-03-22T23:58:31.257Z,96527.66
